sensor_id;sensor_type;location;lat;lon;timestamp;pressure;altitude;pressure_sealevel;temperature;humidity
24302;BME280;12421;49.732;20.078;2022-09-09T00:03:25;96509.66;;;18.73;82.67
24302;BME280;12421;49.732;20.078;2022-09-09T00:23:53;96505.20;;;18.74;82.18
24302;BME280;12421;49.732;20.078;2022-09-09T00:33:58;96505.71;;;18.63;82.69
24302;BME280;12421;49.732;20.078;2022-09-09T00:44:36;96508.79;;;18.73;82.55
24302;BME280;12421;49.732;20.078;2022-09-09T01:04:48;96524.77;;;18.64;82.55
24302;BME280;12421;49.732;20.078;2022-09-09T01:15:03;96527.28;;;18.59;82.79
24302;BME280;12421;49.732;20.078;2022-09-09T01:35:55;96545.53;;;18.49;82.77
24302;BME280;12421;49.732;20.078;2022-09-09T01:46:01;96554.75;;;18.42;82.44
24302;BME280;12421;49.732;20.078;2022-09-09T02:06:48;96573.48;;;18.41;82.77
24302;BME280;12421;49.732;20.078;2022-09-09T02:17:01;96577.88;;;18.42;82.70
24302;BME280;12421;49.732;20.078;2022-09-09T02:27:09;96578.44;;;18.40;82.53
24302;BME280;12421;49.732;20.078;2022-09-09T02:37:15;96596.46;;;18.43;82.67
24302;BME280;12421;49.732;20.078;2022-09-09T02:57:36;96615.69;;;18.41;82.22
24302;BME280;12421;49.732;20.078;2022-09-09T03:07:40;96620.61;;;18.40;82.38
24302;BME280;12421;49.732;20.078;2022-09-09T03:17:43;96625.80;;;18.43;82.32
24302;BME280;12421;49.732;20.078;2022-09-09T03:27:46;96618.92;;;18.38;82.37
24302;BME280;12421;49.732;20.078;2022-09-09T03:37:48;96621.94;;;18.40;82.28
24302;BME280;12421;49.732;20.078;2022-09-09T03:47:51;96623.00;;;18.36;82.49
24302;BME280;12421;49.732;20.078;2022-09-09T03:57:53;96630.48;;;18.28;82.61
24302;BME280;12421;49.732;20.078;2022-09-09T04:07:56;96639.40;;;18.27;82.40
24302;BME280;12421;49.732;20.078;2022-09-09T04:17:59;96641.45;;;18.12;82.36
24302;BME280;12421;49.732;20.078;2022-09-09T04:28:02;96651.69;;;18.11;82.70
24302;BME280;12421;49.732;20.078;2022-09-09T04:38:05;96650.22;;;18.14;82.88
24302;BME280;12421;49.732;20.078;2022-09-09T04:48:11;96639.55;;;18.14;82.82
24302;BME280;12421;49.732;20.078;2022-09-09T04:58:15;96640.51;;;18.03;82.37
24302;BME280;12421;49.732;20.078;2022-09-09T05:08:18;96652.50;;;18.03;82.29
24302;BME280;12421;49.732;20.078;2022-09-09T05:18:23;96663.30;;;18.10;82.64
24302;BME280;12421;49.732;20.078;2022-09-09T05:28:26;96653.82;;;18.23;82.74
24302;BME280;12421;49.732;20.078;2022-09-09T05:38:29;96656.22;;;18.39;82.41
24302;BME280;12421;49.732;20.078;2022-09-09T05:48:35;96668.60;;;18.40;81.77
24302;BME280;12421;49.732;20.078;2022-09-09T05:58:39;96672.27;;;18.48;81.35
24302;BME280;12421;49.732;20.078;2022-09-09T06:08:45;96663.11;;;18.53;81.81
24302;BME280;12421;49.732;20.078;2022-09-09T06:18:48;96672.03;;;18.62;81.76
24302;BME280;12421;49.732;20.078;2022-09-09T06:28:54;96679.45;;;18.74;82.35
24302;BME280;12421;49.732;20.078;2022-09-09T06:38:57;96697.00;;;19.25;81.80
24302;BME280;12421;49.732;20.078;2022-09-09T06:48:59;96686.77;;;19.79;81.66
24302;BME280;12421;49.732;20.078;2022-09-09T06:59:04;96687.67;;;20.46;78.30
24302;BME280;12421;49.732;20.078;2022-09-09T07:09:10;96681.34;;;20.80;76.70
24302;BME280;12421;49.732;20.078;2022-09-09T07:19:16;96683.08;;;21.14;73.61
24302;BME280;12421;49.732;20.078;2022-09-09T07:29:19;96680.72;;;21.39;73.69
24302;BME280;12421;49.732;20.078;2022-09-09T07:39:23;96682.72;;;21.96;71.86
24302;BME280;12421;49.732;20.078;2022-09-09T07:49:27;96694.80;;;22.40;70.64
24302;BME280;12421;49.732;20.078;2022-09-09T07:59:30;96697.53;;;23.03;69.25
24302;BME280;12421;49.732;20.078;2022-09-09T08:09:33;96702.14;;;23.29;68.58
24302;BME280;12421;49.732;20.078;2022-09-09T08:19:40;96721.98;;;23.05;68.65
24302;BME280;12421;49.732;20.078;2022-09-09T08:29:44;96726.59;;;22.68;68.82
24302;BME280;12421;49.732;20.078;2022-09-09T08:39:46;96716.05;;;22.36;68.98
24302;BME280;12421;49.732;20.078;2022-09-09T08:50:12;96729.16;;;22.26;69.18
24302;BME280;12421;49.732;20.078;2022-09-09T09:00:41;96728.59;;;22.65;68.70
24302;BME280;12421;49.732;20.078;2022-09-09T09:10:48;96733.62;;;23.27;65.27
24302;BME280;12421;49.732;20.078;2022-09-09T09:21:19;96727.70;;;23.89;65.28
24302;BME280;12421;49.732;20.078;2022-09-09T09:31:23;96737.17;;;24.09;64.51
24302;BME280;12421;49.732;20.078;2022-09-09T09:41:38;96737.66;;;24.01;64.05
24302;BME280;12421;49.732;20.078;2022-09-09T09:51:42;96734.62;;;24.64;60.84
24302;BME280;12421;49.732;20.078;2022-09-09T10:01:46;96717.61;;;25.27;57.62
24302;BME280;12421;49.732;20.078;2022-09-09T10:12:09;96715.17;;;25.60;58.23
24302;BME280;12421;49.732;20.078;2022-09-09T10:42:48;96712.03;;;25.84;57.37
24302;BME280;12421;49.732;20.078;2022-09-09T11:03:38;96718.09;;;24.63;51.51
24302;BME280;12421;49.732;20.078;2022-09-09T11:14:09;96707.28;;;24.38;53.94
24302;BME280;12421;49.732;20.078;2022-09-09T11:24:18;96718.47;;;24.20;53.61
24302;BME280;12421;49.732;20.078;2022-09-09T11:34:43;96721.81;;;24.04;53.31
24302;BME280;12421;49.732;20.078;2022-09-09T11:44:57;96723.94;;;23.92;55.64
24302;BME280;12421;49.732;20.078;2022-09-09T11:55:24;96729.73;;;24.12;55.42
24302;BME280;12421;49.732;20.078;2022-09-09T12:05:42;96711.40;;;24.12;52.14
24302;BME280;12421;49.732;20.078;2022-09-09T12:15:50;96708.67;;;24.63;52.72
24302;BME280;12421;49.732;20.078;2022-09-09T12:36:37;96707.50;;;24.35;51.06
24302;BME280;12421;49.732;20.078;2022-09-09T12:46:43;96712.98;;;24.21;52.11
24302;BME280;12421;49.732;20.078;2022-09-09T12:56:48;96727.20;;;24.23;52.09
24302;BME280;12421;49.732;20.078;2022-09-09T13:06:51;96713.77;;;24.48;50.54
24302;BME280;12421;49.732;20.078;2022-09-09T13:16:57;96694.23;;;24.39;51.77
24302;BME280;12421;49.732;20.078;2022-09-09T13:27:26;96695.17;;;24.38;50.30
24302;BME280;12421;49.732;20.078;2022-09-09T13:37:37;96685.17;;;24.08;52.79
24302;BME280;12421;49.732;20.078;2022-09-09T13:47:40;96684.64;;;24.16;54.62
24302;BME280;12421;49.732;20.078;2022-09-09T14:07:58;96651.44;;;23.83;57.18
24302;BME280;12421;49.732;20.078;2022-09-09T14:18:03;96649.36;;;23.81;57.85
24302;BME280;12421;49.732;20.078;2022-09-09T14:28:09;96652.78;;;23.83;58.16
24302;BME280;12421;49.732;20.078;2022-09-09T14:38:15;96642.91;;;23.57;54.76
24302;BME280;12421;49.732;20.078;2022-09-09T14:48:18;96645.81;;;23.74;54.96
24302;BME280;12421;49.732;20.078;2022-09-09T14:58:22;96650.09;;;23.83;53.40
24302;BME280;12421;49.732;20.078;2022-09-09T15:08:24;96637.04;;;23.84;55.40
24302;BME280;12421;49.732;20.078;2022-09-09T15:18:27;96639.83;;;23.63;54.06
24302;BME280;12421;49.732;20.078;2022-09-09T15:28:32;96635.88;;;23.42;53.37
24302;BME280;12421;49.732;20.078;2022-09-09T15:38:39;96643.61;;;23.13;56.00
24302;BME280;12421;49.732;20.078;2022-09-09T15:48:41;96629.47;;;22.76;56.64
24302;BME280;12421;49.732;20.078;2022-09-09T15:58:45;96628.84;;;22.36;57.78
24302;BME280;12421;49.732;20.078;2022-09-09T16:08:51;96636.45;;;21.92;59.02
24302;BME280;12421;49.732;20.078;2022-09-09T16:18:56;96641.64;;;21.50;60.45
24302;BME280;12421;49.732;20.078;2022-09-09T16:29:01;96657.87;;;21.09;61.63
24302;BME280;12421;49.732;20.078;2022-09-09T16:39:07;96656.48;;;20.54;62.56
24302;BME280;12421;49.732;20.078;2022-09-09T16:49:12;96644.61;;;19.93;64.63
24302;BME280;12421;49.732;20.078;2022-09-09T16:59:19;96649.09;;;19.50;66.07
24302;BME280;12421;49.732;20.078;2022-09-09T17:09:24;96651.41;;;19.11;67.01
24302;BME280;12421;49.732;20.078;2022-09-09T17:19:28;96650.09;;;18.74;68.58
24302;BME280;12421;49.732;20.078;2022-09-09T17:29:31;96653.02;;;18.41;69.90
24302;BME280;12421;49.732;20.078;2022-09-09T17:39:33;96649.30;;;18.15;70.49
24302;BME280;12421;49.732;20.078;2022-09-09T17:49:36;96673.04;;;17.91;71.30
24302;BME280;12421;49.732;20.078;2022-09-09T17:59:38;96682.48;;;17.68;72.11
24302;BME280;12421;49.732;20.078;2022-09-09T18:09:43;96693.19;;;17.23;72.53
24302;BME280;12421;49.732;20.078;2022-09-09T18:19:45;96698.56;;;17.12;73.88
24302;BME280;12421;49.732;20.078;2022-09-09T18:29:48;96701.23;;;17.12;74.21
24302;BME280;12421;49.732;20.078;2022-09-09T18:39:50;96705.11;;;17.03;74.71
24302;BME280;12421;49.732;20.078;2022-09-09T18:49:53;96711.55;;;16.75;75.87
24302;BME280;12421;49.732;20.078;2022-09-09T18:59:56;96711.55;;;16.75;75.87
24302;BME280;12421;49.732;20.078;2022-09-09T19:10:00;96710.31;;;16.62;76.22
24302;BME280;12421;49.732;20.078;2022-09-09T19:20:04;96721.27;;;16.52;76.39
24302;BME280;12421;49.732;20.078;2022-09-09T19:30:10;96716.67;;;16.44;76.80
24302;BME280;12421;49.732;20.078;2022-09-09T19:40:13;96718.75;;;16.36;77.08
24302;BME280;12421;49.732;20.078;2022-09-09T19:50:16;96724.77;;;16.41;77.50
24302;BME280;12421;49.732;20.078;2022-09-09T20:00:20;96713.63;;;16.43;77.09
24302;BME280;12421;49.732;20.078;2022-09-09T20:10:22;96702.99;;;16.07;77.41
24302;BME280;12421;49.732;20.078;2022-09-09T20:20:24;96704.41;;;15.93;77.66
24302;BME280;12421;49.732;20.078;2022-09-09T20:30:26;96703.88;;;15.70;77.83
24302;BME280;12421;49.732;20.078;2022-09-09T20:40:30;96708.75;;;15.45;77.83
24302;BME280;12421;49.732;20.078;2022-09-09T20:50:35;96711.26;;;15.35;78.42
24302;BME280;12421;49.732;20.078;2022-09-09T21:00:38;96707.98;;;15.13;78.64
24302;BME280;12421;49.732;20.078;2022-09-09T21:10:42;96715.16;;;15.10;78.92
24302;BME280;12421;49.732;20.078;2022-09-09T21:20:49;96720.69;;;15.17;79.43
24302;BME280;12421;49.732;20.078;2022-09-09T21:30:54;96706.72;;;15.25;79.24
24302;BME280;12421;49.732;20.078;2022-09-09T21:41:05;96707.28;;;14.94;79.52
24302;BME280;12421;49.732;20.078;2022-09-09T21:51:14;96699.77;;;14.93;80.68
24302;BME280;12421;49.732;20.078;2022-09-09T22:01:17;96695.34;;;14.94;80.78
24302;BME280;12421;49.732;20.078;2022-09-09T22:11:21;96694.59;;;15.03;80.71
24302;BME280;12421;49.732;20.078;2022-09-09T22:21:24;96710.73;;;15.10;81.02
24302;BME280;12421;49.732;20.078;2022-09-09T22:31:27;96708.94;;;15.24;80.63
24302;BME280;12421;49.732;20.078;2022-09-09T22:41:29;96693.23;;;15.18;80.41
24302;BME280;12421;49.732;20.078;2022-09-09T22:51:32;96678.53;;;15.21;80.90
24302;BME280;12421;49.732;20.078;2022-09-09T23:01:37;96673.23;;;15.34;80.77
24302;BME280;12421;49.732;20.078;2022-09-09T23:11:39;96668.91;;;15.32;80.69
24302;BME280;12421;49.732;20.078;2022-09-09T23:21:44;96648.84;;;15.36;80.91
24302;BME280;12421;49.732;20.078;2022-09-09T23:31:47;96624.09;;;15.36;80.84
24302;BME280;12421;49.732;20.078;2022-09-09T23:41:49;96606.14;;;15.17;81.00
24302;BME280;12421;49.732;20.078;2022-09-09T23:51:51;96594.59;;;15.07;81.63
